Time;durP1;ratioP1;P1;durP2;ratioP2;P2;SDS_P1;SDS_P2;PMS_P1;PMS_P2;Temp;Humidity;BMP_temperature;BMP_pressure;BME280_temperature;BME280_humidity;BME280_pressure;Samples;Min_cycle;Max_cycle;Signal;HPM_P1;HPM_P2
2022/02/16 00:01:45;;;;;;;2.00;1.00;;;11.30;46.40;;;;;;5038422;28;20240;-43
2022/02/16 00:04:11;;;;;;;3.30;1.47;;;11.20;46.00;;;;;;5040310;28;20560;-43
2022/02/16 00:06:38;;;;;;;2.60;1.57;;;11.10;46.20;;;;;;5044656;28;20657;-43
2022/02/16 00:09:04;;;;;;;2.50;1.63;;;10.90;46.40;;;;;;5041911;28;20446;-43
2022/02/16 00:11:29;;;;;;;2.60;1.57;;;10.80;46.80;;;;;;5049884;28;20465;-43
2022/02/16 00:13:55;;;;;;;1.10;1.00;;;10.70;46.90;;;;;;5047179;28;20446;-43
2022/02/16 00:16:20;;;;;;;2.50;1.43;;;10.50;47.20;;;;;;5043913;28;20192;-43
2022/02/16 00:18:46;;;;;;;3.70;0.80;;;10.60;47.30;;;;;;5045175;28;20606;-43
2022/02/16 00:21:12;;;;;;;1.87;1.20;;;10.30;47.40;;;;;;5047586;28;20820;-43
2022/02/16 00:23:37;;;;;;;1.63;1.10;;;10.30;47.70;;;;;;5045785;28;20205;-43
2022/02/16 00:26:03;;;;;;;2.97;1.03;;;10.40;47.60;;;;;;5049148;28;20227;-43
2022/02/16 00:28:29;;;;;;;2.10;1.00;;;10.50;47.40;;;;;;5040890;28;20194;-43
2022/02/16 00:30:55;;;;;;;3.10;1.23;;;10.40;47.30;;;;;;5041052;28;21127;-43
2022/02/16 00:33:20;;;;;;;3.20;1.10;;;10.20;47.80;;;;;;5048438;28;20439;-43
2022/02/16 00:35:46;;;;;;;3.77;0.90;;;10.20;48.00;;;;;;5042013;28;20747;-43
2022/02/16 00:38:12;;;;;;;2.53;1.10;;;10.40;47.80;;;;;;5039577;28;20830;-43
2022/02/16 00:40:37;;;;;;;2.13;0.80;;;10.40;47.70;;;;;;5040988;28;20193;-43
2022/02/16 00:43:03;;;;;;;2.53;0.80;;;10.40;47.50;;;;;;5043753;28;20189;-43
2022/02/16 00:45:31;;;;;;;1.70;1.00;;;10.50;47.60;;;;;;5042118;28;20192;-43
2022/02/16 00:47:57;;;;;;;2.83;1.20;;;10.50;47.60;;;;;;5051242;28;20311;-43
2022/02/16 00:50:22;;;;;;;2.50;1.20;;;10.60;47.50;;;;;;5044435;28;20882;-43
2022/02/16 00:52:48;;;;;;;1.20;0.83;;;10.30;47.50;;;;;;5038006;28;20198;-43
2022/02/16 00:55:14;;;;;;;5.00;1.77;;;10.00;48.20;;;;;;5044739;28;20915;-43
2022/02/16 00:57:39;;;;;;;2.27;1.00;;;10.20;48.40;;;;;;5044420;28;20204;-44
2022/02/16 01:00:06;;;;;;;1.23;0.80;;;10.40;48.20;;;;;;5046837;28;20196;-43
2022/02/16 01:02:31;;;;;;;3.53;1.33;;;10.40;48.00;;;;;;5036977;28;20192;-43
2022/02/16 01:04:57;;;;;;;3.00;1.00;;;10.30;48.20;;;;;;5042839;28;20664;-42
2022/02/16 01:07:23;;;;;;;2.53;1.40;;;10.40;48.00;;;;;;5038029;28;20239;-43
2022/02/16 01:09:48;;;;;;;2.17;0.90;;;10.60;47.90;;;;;;5045252;28;20201;-43
2022/02/16 01:12:14;;;;;;;1.53;0.70;;;10.20;48.00;;;;;;5044598;28;20203;-43
2022/02/16 01:14:40;;;;;;;4.87;1.00;;;10.30;48.30;;;;;;5045914;28;20196;-43
2022/02/16 01:17:06;;;;;;;2.20;1.13;;;10.40;48.20;;;;;;5042139;28;20201;-43
2022/02/16 01:19:32;;;;;;;3.67;1.30;;;10.40;48.30;;;;;;5038978;28;20443;-43
2022/02/16 01:21:58;;;;;;;1.27;1.07;;;10.50;48.20;;;;;;5040964;28;20442;-43
2022/02/16 01:24:23;;;;;;;3.13;1.33;;;10.40;48.30;;;;;;5045068;28;20204;-43
2022/02/16 01:26:49;;;;;;;1.13;1.00;;;10.30;48.60;;;;;;5041074;28;20232;-43
2022/02/16 01:29:15;;;;;;;4.70;1.40;;;10.40;48.50;;;;;;5045405;28;20200;-43
2022/02/16 01:31:40;;;;;;;2.00;1.13;;;10.30;48.40;;;;;;5048340;28;20224;-43
2022/02/16 01:34:06;;;;;;;1.50;1.17;;;10.30;48.70;;;;;;5048414;28;20554;-43
2022/02/16 01:36:31;;;;;;;2.23;1.03;;;10.20;48.90;;;;;;5043500;28;20627;-43
2022/02/16 01:38:57;;;;;;;1.10;1.03;;;10.30;49.00;;;;;;5046506;28;20983;-43
2022/02/16 01:41:23;;;;;;;2.53;1.50;;;10.40;48.70;;;;;;5051034;28;20247;-43
2022/02/16 01:43:50;;;;;;;2.10;0.77;;;10.50;48.40;;;;;;5050168;28;20200;-43
2022/02/16 01:46:17;;;;;;;2.67;1.13;;;10.40;48.20;;;;;;5044443;28;20248;-43
2022/02/16 01:48:43;;;;;;;2.17;1.13;;;10.30;48.60;;;;;;5041694;28;20445;-43
2022/02/16 01:51:10;;;;;;;1.40;1.20;;;10.30;48.60;;;;;;5043766;28;20439;-43
2022/02/16 01:53:36;;;;;;;1.90;1.10;;;10.40;48.60;;;;;;5047792;28;20876;-43
2022/02/16 01:56:02;;;;;;;1.10;0.70;;;10.50;49.10;;;;;;5040508;28;20470;-43
2022/02/16 01:58:28;;;;;;;1.53;0.90;;;10.50;48.30;;;;;;5042940;28;20459;-43
2022/02/16 02:00:55;;;;;;;1.90;0.73;;;10.40;48.60;;;;;;5042613;28;20196;-43
2022/02/16 02:03:21;;;;;;;2.70;1.17;;;10.50;48.60;;;;;;5040459;28;20794;-43
2022/02/16 02:05:50;;;;;;;4.07;1.17;;;10.50;48.20;;;;;;5043118;28;20522;-43
2022/02/16 02:08:21;;;;;;;2.83;1.20;;;10.40;48.30;;;;;;5036784;28;20197;-43
2022/02/16 02:10:47;;;;;;;1.17;0.70;;;10.40;48.60;;;;;;5045852;28;20442;-43
2022/02/16 02:13:15;;;;;;;1.53;0.90;;;10.50;48.60;;;;;;5041079;28;20451;-43
2022/02/16 02:15:40;;;;;;;1.80;1.10;;;10.40;48.30;;;;;;5039882;28;20432;-42
2022/02/16 02:18:06;;;;;;;1.40;0.90;;;10.50;48.30;;;;;;5041266;28;20446;-43
2022/02/16 02:20:31;;;;;;;2.90;1.00;;;10.50;48.20;;;;;;5046182;28;20563;-43
2022/02/16 02:22:58;;;;;;;1.97;1.10;;;10.30;48.30;;;;;;5043198;28;20223;-43
2022/02/16 02:25:24;;;;;;;3.10;1.40;;;10.50;48.40;;;;;;5046770;28;20558;-43
2022/02/16 02:27:50;;;;;;;1.87;0.83;;;10.60;48.30;;;;;;5043628;28;20483;-43
2022/02/16 02:30:16;;;;;;;2.10;0.70;;;10.70;48.20;;;;;;5041759;28;20228;-43
2022/02/16 02:32:44;;;;;;;1.30;0.80;;;10.60;48.00;;;;;;5043250;28;20435;-43
2022/02/16 02:35:12;;;;;;;5.33;1.63;;;10.70;48.10;;;;;;5037266;28;20539;-43
2022/02/16 02:37:38;;;;;;;2.27;1.20;;;10.80;48.00;;;;;;5034144;28;20447;-43
2022/02/16 02:40:05;;;;;;;1.33;0.87;;;10.70;47.90;;;;;;5034013;28;20549;-43
2022/02/16 02:42:30;;;;;;;4.90;1.40;;;10.70;48.00;;;;;;5035836;28;20452;-43
2022/02/16 02:44:56;;;;;;;1.30;0.87;;;10.70;47.90;;;;;;5037235;28;20439;-43
2022/02/16 02:47:21;;;;;;;3.87;1.20;;;10.70;48.00;;;;;;5040304;28;20220;-42
2022/02/16 02:49:47;;;;;;;1.10;0.90;;;10.60;48.20;;;;;;5041496;28;20188;-43
2022/02/16 02:52:12;;;;;;;2.27;1.10;;;10.60;48.50;;;;;;5042177;28;20196;-42
2022/02/16 02:54:38;;;;;;;2.60;1.23;;;10.70;48.50;;;;;;5042112;28;20636;-42
2022/02/16 02:57:04;;;;;;;1.33;0.70;;;10.80;48.30;;;;;;5043475;28;20272;-42
2022/02/16 02:59:29;;;;;;;2.47;1.07;;;10.60;48.50;;;;;;5042461;28;20193;-42
2022/02/16 03:01:55;;;;;;;1.07;0.90;;;10.80;48.60;;;;;;5044353;28;20771;-43
2022/02/16 03:04:20;;;;;;;4.37;1.13;;;10.80;48.60;;;;;;5042739;28;20188;-43
2022/02/16 03:06:46;;;;;;;1.10;0.90;;;10.80;48.30;;;;;;5044399;28;20303;-42
2022/02/16 03:09:12;;;;;;;2.10;0.90;;;10.80;48.40;;;;;;5044012;28;20197;-43
2022/02/16 03:11:37;;;;;;;1.93;1.07;;;10.70;48.80;;;;;;5037227;28;20539;-42
2022/02/16 03:14:03;;;;;;;1.70;1.10;;;10.80;48.60;;;;;;5039007;28;20189;-43
2022/02/16 03:16:28;;;;;;;1.43;0.80;;;10.80;48.60;;;;;;5043549;28;20200;-43
2022/02/16 03:18:54;;;;;;;1.80;0.70;;;10.70;48.80;;;;;;5046382;28;20196;-43
2022/02/16 03:21:19;;;;;;;3.30;2.00;;;10.70;48.90;;;;;;5051669;28;20192;-42
2022/02/16 03:23:45;;;;;;;1.00;0.83;;;10.60;49.30;;;;;;5050500;28;20681;-43
2022/02/16 03:26:11;;;;;;;1.30;1.20;;;10.60;49.30;;;;;;5042553;28;20238;-42
2022/02/16 03:28:36;;;;;;;2.00;0.83;;;10.70;49.30;;;;;;5041941;28;20211;-42
2022/02/16 03:31:02;;;;;;;0.90;0.80;;;10.70;49.40;;;;;;5051313;28;20244;-42
2022/02/16 03:33:28;;;;;;;1.67;0.90;;;10.90;49.40;;;;;;5042852;28;20204;-43
2022/02/16 03:35:54;;;;;;;2.63;0.90;;;10.80;49.40;;;;;;5051071;28;20196;-43
2022/02/16 03:38:19;;;;;;;1.10;1.00;;;10.90;49.30;;;;;;5041470;28;20474;-42
2022/02/16 03:40:45;;;;;;;2.17;0.93;;;10.90;49.20;;;;;;5043165;28;20205;-42
2022/02/16 03:43:11;;;;;;;2.50;0.90;;;10.90;49.20;;;;;;5046513;28;20193;-42
2022/02/16 03:45:36;;;;;;;2.73;0.80;;;10.90;49.20;;;;;;5038102;28;20196;-43
2022/02/16 03:48:02;;;;;;;0.90;0.70;;;10.60;49.60;;;;;;5044354;28;20315;-42
2022/02/16 03:50:27;;;;;;;4.90;0.90;;;10.70;50.00;;;;;;5043724;28;20192;-43
2022/02/16 03:52:53;;;;;;;1.43;0.80;;;10.80;49.90;;;;;;5044753;28;20231;-42
2022/02/16 03:55:19;;;;;;;0.80;0.70;;;10.90;49.70;;;;;;5048693;28;20243;-42
2022/02/16 03:57:45;;;;;;;2.50;0.83;;;11.00;49.60;;;;;;5038878;28;20467;-42
2022/02/16 04:00:12;;;;;;;5.47;1.10;;;11.20;49.50;;;;;;5041983;28;20189;-43
2022/02/16 04:02:37;;;;;;;1.20;0.70;;;11.10;49.50;;;;;;5042702;28;20240;-43
2022/02/16 04:05:04;;;;;;;1.40;0.90;;;11.10;49.70;;;;;;5041380;28;20448;-42
2022/02/16 04:07:30;;;;;;;0.60;0.60;;;11.10;49.70;;;;;;5046133;28;20235;-43
2022/02/16 04:09:56;;;;;;;0.70;0.50;;;10.90;50.60;;;;;;5047402;28;20442;-43
2022/02/16 04:12:21;;;;;;;1.20;1.03;;;10.90;50.40;;;;;;5046345;28;20485;-42
2022/02/16 04:14:47;;;;;;;0.60;0.60;;;11.00;50.30;;;;;;5045330;28;20189;-43
2022/02/16 04:17:12;;;;;;;1.63;0.90;;;11.00;50.10;;;;;;5040406;28;20189;-42
2022/02/16 04:19:38;;;;;;;1.23;0.60;;;11.10;50.10;;;;;;5040763;28;20184;-42
2022/02/16 04:22:03;;;;;;;0.50;0.50;;;11.20;50.00;;;;;;5043486;28;20687;-42
2022/02/16 04:24:29;;;;;;;0.90;0.70;;;11.20;50.00;;;;;;5042989;28;20255;-42
2022/02/16 04:26:55;;;;;;;0.97;0.60;;;11.20;50.10;;;;;;5047265;28;20232;-42
2022/02/16 04:29:20;;;;;;;2.20;0.67;;;11.10;50.20;;;;;;5043963;28;20196;-42
2022/02/16 04:31:46;;;;;;;1.90;0.73;;;11.10;50.40;;;;;;5044544;28;20228;-43
2022/02/16 04:34:12;;;;;;;3.10;0.77;;;11.20;50.50;;;;;;5045952;28;20193;-42
2022/02/16 04:36:38;;;;;;;1.10;0.70;;;11.00;50.60;;;;;;5044614;28;20197;-43
2022/02/16 04:39:04;;;;;;;0.90;0.50;;;11.00;50.90;;;;;;5037413;28;20451;-43
2022/02/16 04:41:30;;;;;;;2.10;0.60;;;11.00;50.90;;;;;;5033818;28;20228;-43
2022/02/16 04:43:55;;;;;;;1.03;0.63;;;10.90;50.90;;;;;;5041543;28;20427;-42
2022/02/16 04:46:21;;;;;;;2.03;0.70;;;10.90;51.20;;;;;;5049419;28;20220;-42
2022/02/16 04:48:47;;;;;;;0.60;0.50;;;11.00;51.00;;;;;;5042689;28;20189;-42
2022/02/16 04:51:13;;;;;;;0.80;0.50;;;10.90;51.20;;;;;;5046695;28;20242;-43
2022/02/16 04:53:39;;;;;;;0.60;0.60;;;11.00;51.30;;;;;;5037343;28;20185;-42
2022/02/16 04:56:06;;;;;;;1.23;0.60;;;11.00;51.30;;;;;;5052797;28;20435;-43
2022/02/16 04:58:32;;;;;;;0.70;0.60;;;10.90;51.60;;;;;;5046083;28;20201;-42
2022/02/16 05:00:58;;;;;;;1.30;0.70;;;11.00;51.60;;;;;;5033140;28;20436;-42
2022/02/16 05:03:24;;;;;;;1.00;0.73;;;11.00;52.10;;;;;;5038954;28;20523;-42
2022/02/16 05:05:49;;;;;;;0.50;0.50;;;11.20;51.50;;;;;;5042273;28;20204;-43
2022/02/16 05:08:15;;;;;;;1.73;0.87;;;11.10;51.50;;;;;;5034750;28;20323;-42
2022/02/16 05:10:41;;;;;;;1.00;0.70;;;10.90;51.60;;;;;;5045928;28;20250;-43
2022/02/16 05:13:07;;;;;;;1.13;0.50;;;11.20;52.10;;;;;;5045245;28;20200;-43
2022/02/16 05:15:33;;;;;;;2.90;0.60;;;11.20;52.00;;;;;;5041646;28;20439;-43
2022/02/16 05:17:59;;;;;;;0.80;0.60;;;11.20;51.90;;;;;;5042095;28;20249;-43
2022/02/16 05:20:25;;;;;;;0.60;0.50;;;10.80;52.30;;;;;;5042820;28;20299;-42
2022/02/16 05:22:51;;;;;;;1.10;0.90;;;10.90;52.70;;;;;;5044991;28;20439;-42
2022/02/16 05:25:16;;;;;;;0.50;0.40;;;10.90;52.80;;;;;;5046163;28;20438;-42
2022/02/16 05:27:42;;;;;;;1.80;1.03;;;11.10;52.60;;;;;;5048185;28;20317;-42
2022/02/16 05:30:08;;;;;;;2.30;0.80;;;11.00;52.40;;;;;;5049343;28;20228;-42
2022/02/16 05:32:34;;;;;;;1.40;0.60;;;11.20;52.50;;;;;;5042603;28;20181;-43
2022/02/16 05:35:00;;;;;;;1.10;0.50;;;11.20;52.50;;;;;;5050613;28;20428;-42
2022/02/16 05:37:26;;;;;;;0.60;0.60;;;11.10;52.60;;;;;;5044170;28;20307;-42
2022/02/16 05:39:52;;;;;;;1.03;0.60;;;10.80;53.00;;;;;;5043629;28;20542;-42
2022/02/16 05:42:17;;;;;;;1.30;0.87;;;10.90;53.00;;;;;;5044378;28;20602;-42
2022/02/16 05:44:43;;;;;;;1.00;0.63;;;10.90;53.10;;;;;;5044479;28;20197;-42
2022/02/16 05:47:09;;;;;;;0.60;0.50;;;10.90;53.10;;;;;;5050402;28;20235;-42
2022/02/16 05:49:35;;;;;;;0.47;0.47;;;10.90;53.10;;;;;;5047651;28;20278;-42
2022/02/16 05:52:00;;;;;;;1.27;0.70;;;11.00;53.00;;;;;;5046128;28;20215;-42
2022/02/16 05:54:26;;;;;;;0.50;0.50;;;10.80;53.30;;;;;;5043351;28;20197;-42
2022/02/16 05:56:51;;;;;;;0.60;0.50;;;10.90;53.40;;;;;;5044366;28;20610;-42
2022/02/16 05:59:17;;;;;;;0.50;0.50;;;11.10;53.10;;;;;;5034554;28;20204;-42
2022/02/16 06:01:42;;;;;;;0.40;0.40;;;11.20;52.90;;;;;;5046057;28;20215;-43
2022/02/16 06:04:08;;;;;;;0.90;0.60;;;11.10;53.00;;;;;;5049291;28;20632;-42
2022/02/16 06:06:34;;;;;;;0.60;0.40;;;11.20;53.00;;;;;;5048512;28;20219;-43
2022/02/16 06:09:00;;;;;;;0.60;0.60;;;11.30;52.70;;;;;;5048513;28;20192;-42
2022/02/16 06:11:25;;;;;;;0.50;0.50;;;11.40;52.70;;;;;;5043071;28;20906;-44
2022/02/16 06:13:52;;;;;;;1.00;0.53;;;11.40;52.50;;;;;;5039863;28;20228;-42
2022/02/16 06:16:18;;;;;;;0.50;0.50;;;11.50;52.50;;;;;;5035593;28;20283;-42
2022/02/16 06:18:44;;;;;;;1.27;0.50;;;11.40;52.40;;;;;;5040434;28;20537;-42
2022/02/16 06:21:09;;;;;;;1.17;0.70;;;11.30;52.80;;;;;;5043357;28;20189;-42
2022/02/16 06:23:35;;;;;;;1.27;0.60;;;11.40;52.80;;;;;;5043854;28;20350;-42
2022/02/16 06:26:01;;;;;;;0.73;0.60;;;11.50;53.00;;;;;;5043181;28;20219;-42
2022/02/16 06:28:26;;;;;;;1.07;0.73;;;11.20;53.60;;;;;;5039857;28;20193;-43
2022/02/16 06:30:52;;;;;;;0.60;0.60;;;11.30;53.50;;;;;;5035402;28;20326;-42
2022/02/16 06:33:18;;;;;;;0.63;0.50;;;11.30;53.40;;;;;;5044262;28;20292;-42
2022/02/16 06:35:44;;;;;;;2.30;0.50;;;11.20;53.50;;;;;;5047889;28;20605;-42
2022/02/16 06:38:10;;;;;;;0.60;0.43;;;11.40;53.40;;;;;;5039753;28;20458;-42
2022/02/16 06:40:36;;;;;;;0.60;0.60;;;11.30;53.40;;;;;;5045472;28;20541;-42
2022/02/16 06:43:02;;;;;;;1.10;0.73;;;11.20;53.50;;;;;;5034117;28;20459;-42
2022/02/16 06:45:28;;;;;;;0.70;0.70;;;11.40;53.50;;;;;;5045429;28;20197;-43
2022/02/16 06:47:53;;;;;;;0.67;0.57;;;11.60;53.20;;;;;;5046456;28;20232;-42
2022/02/16 06:50:19;;;;;;;2.20;0.50;;;11.40;53.00;;;;;;5041454;28;20558;-42
2022/02/16 06:52:45;;;;;;;0.93;0.50;;;11.40;53.40;;;;;;5050727;28;20323;-42
2022/02/16 06:55:10;;;;;;;0.60;0.60;;;11.40;53.50;;;;;;5047250;28;20196;-42
2022/02/16 06:57:36;;;;;;;2.20;0.60;;;11.20;53.60;;;;;;5043993;28;20204;-42
2022/02/16 07:00:03;;;;;;;0.50;0.40;;;11.00;54.10;;;;;;5046946;28;20219;-42
2022/02/16 07:02:28;;;;;;;0.60;0.50;;;10.90;54.50;;;;;;5041900;28;20557;-42
2022/02/16 07:04:54;;;;;;;1.27;0.40;;;11.00;54.60;;;;;;5053636;28;20459;-42
2022/02/16 07:07:20;;;;;;;0.50;0.50;;;11.10;54.20;;;;;;5044244;28;20225;-42
2022/02/16 07:09:45;;;;;;;0.50;0.40;;;11.20;54.00;;;;;;5044317;28;20279;-42
2022/02/16 07:12:11;;;;;;;0.63;0.60;;;11.40;53.80;;;;;;5053214;28;20196;-42
2022/02/16 07:14:37;;;;;;;0.70;0.50;;;11.60;53.80;;;;;;5050957;28;20648;-42
2022/02/16 07:17:02;;;;;;;0.90;0.50;;;11.70;54.00;;;;;;5051165;28;20548;-42
2022/02/16 07:19:28;;;;;;;1.10;0.70;;;11.80;53.90;;;;;;5051173;28;20196;-42
2022/02/16 07:21:57;;;;;;;1.53;0.60;;;11.70;54.00;;;;;;5047974;28;20189;-42
2022/02/16 07:24:24;;;;;;;1.23;0.50;;;11.70;54.20;;;;;;5050171;28;20193;-42
2022/02/16 07:26:49;;;;;;;0.57;0.57;;;11.40;54.50;;;;;;5053303;28;20489;-42
2022/02/16 07:29:16;;;;;;;1.10;0.70;;;11.50;55.00;;;;;;5050656;28;20443;-42
2022/02/16 07:31:41;;;;;;;1.30;0.50;;;11.50;55.10;;;;;;5052845;28;20573;-42
2022/02/16 07:34:07;;;;;;;0.70;0.70;;;11.60;55.40;;;;;;5045784;28;20558;-43
2022/02/16 07:36:33;;;;;;;1.17;0.60;;;11.50;55.10;;;;;;5047628;28;20188;-43
2022/02/16 07:39:00;;;;;;;0.57;0.50;;;11.30;55.60;;;;;;5048655;28;20576;-42
2022/02/16 07:41:26;;;;;;;1.33;0.60;;;11.30;55.70;;;;;;5051096;28;20437;-43
2022/02/16 07:43:51;;;;;;;0.90;0.50;;;11.10;56.50;;;;;;5044622;28;20427;-43
2022/02/16 07:46:18;;;;;;;0.93;0.70;;;11.20;56.60;;;;;;5050301;28;20276;-42
2022/02/16 07:48:44;;;;;;;1.03;0.80;;;11.00;56.90;;;;;;5051612;28;20203;-43
2022/02/16 07:51:10;;;;;;;7.03;0.83;;;10.90;57.50;;;;;;5051417;28;20518;-43
2022/02/16 07:53:37;;;;;;;1.70;0.50;;;10.90;57.50;;;;;;5049913;28;20427;-42
2022/02/16 07:56:03;;;;;;;2.10;0.63;;;11.00;57.50;;;;;;5046519;28;20196;-43
2022/02/16 07:58:29;;;;;;;1.37;0.77;;;11.00;57.30;;;;;;5047602;28;20434;-43
2022/02/16 08:00:55;;;;;;;0.83;0.60;;;11.10;57.40;;;;;;5052185;28;20921;-42
2022/02/16 08:03:21;;;;;;;0.50;0.50;;;11.10;57.50;;;;;;5042021;28;20203;-42
2022/02/16 08:05:46;;;;;;;0.50;0.50;;;10.90;57.40;;;;;;5036859;28;20196;-42
2022/02/16 08:08:12;;;;;;;0.80;0.70;;;11.00;57.40;;;;;;5046398;28;20517;-43
2022/02/16 08:10:38;;;;;;;0.80;0.57;;;11.10;57.60;;;;;;5051948;28;20203;-42
2022/02/16 08:13:04;;;;;;;0.90;0.60;;;11.00;57.10;;;;;;5050527;28;20564;-42
2022/02/16 08:15:31;;;;;;;0.90;0.90;;;10.70;57.40;;;;;;5049125;28;20283;-42
2022/02/16 08:17:57;;;;;;;0.60;0.60;;;10.80;58.00;;;;;;5048363;28;20283;-42
2022/02/16 08:20:23;;;;;;;0.50;0.43;;;11.00;57.90;;;;;;5049567;28;20439;-42
2022/02/16 08:22:49;;;;;;;0.60;0.60;;;11.10;57.90;;;;;;5049781;28;20443;-42
2022/02/16 08:25:15;;;;;;;1.13;0.67;;;11.10;58.00;;;;;;5044995;28;21006;-42
2022/02/16 08:27:41;;;;;;;1.20;0.83;;;10.90;58.10;;;;;;5049336;28;20223;-42
2022/02/16 08:30:08;;;;;;;0.87;0.60;;;10.90;58.70;;;;;;5043315;28;20491;-42
2022/02/16 08:32:34;;;;;;;0.70;0.70;;;10.90;58.40;;;;;;5041679;28;20449;-42
2022/02/16 08:35:00;;;;;;;1.73;0.60;;;10.90;58.80;;;;;;5051894;28;20439;-42
2022/02/16 08:37:27;;;;;;;0.97;0.67;;;11.00;59.10;;;;;;5044622;28;20225;-45
2022/02/16 08:39:53;;;;;;;2.30;0.70;;;11.10;59.20;;;;;;5048819;28;20197;-42
2022/02/16 08:42:18;;;;;;;1.20;0.60;;;11.00;59.30;;;;;;5048479;28;20809;-42
2022/02/16 08:44:44;;;;;;;0.70;0.70;;;10.90;59.40;;;;;;5049982;28;20979;-42
2022/02/16 08:47:09;;;;;;;1.13;0.70;;;10.90;59.80;;;;;;5042750;28;20252;-41
2022/02/16 08:49:37;;;;;;;1.43;0.80;;;11.00;60.00;;;;;;5034373;28;20208;-42
2022/02/16 08:52:03;;;;;;;0.90;0.67;;;10.80;59.90;;;;;;5033748;28;20197;-42
2022/02/16 08:54:28;;;;;;;1.27;0.60;;;10.80;60.90;;;;;;5032842;28;20455;-41
2022/02/16 08:56:55;;;;;;;3.23;1.60;;;10.80;60.60;;;;;;5038812;28;20796;-42
2022/02/16 08:59:21;;;;;;;2.70;0.90;;;10.80;60.80;;;;;;5043161;28;20194;-42
2022/02/16 09:01:46;;;;;;;0.70;0.67;;;10.80;61.20;;;;;;5035849;28;21055;-41
2022/02/16 09:04:12;;;;;;;1.80;0.80;;;10.70;60.90;;;;;;5041620;28;20193;-42
2022/02/16 09:06:37;;;;;;;0.60;0.60;;;10.80;62.00;;;;;;5042446;28;20571;-41
2022/02/16 09:09:04;;;;;;;0.60;0.60;;;10.90;61.90;;;;;;5044176;28;20200;-41
2022/02/16 09:11:29;;;;;;;1.47;0.70;;;10.60;62.00;;;;;;5034148;28;20600;-41
2022/02/16 09:13:56;;;;;;;1.20;0.70;;;10.40;62.60;;;;;;5044266;28;20439;-41
2022/02/16 09:16:22;;;;;;;1.50;0.77;;;10.50;63.60;;;;;;5041250;28;20675;-41
2022/02/16 09:18:48;;;;;;;0.60;0.50;;;10.60;64.00;;;;;;5040577;28;20490;-41
2022/02/16 09:21:17;;;;;;;0.70;0.57;;;10.50;64.00;;;;;;5043716;28;20447;-41
2022/02/16 09:23:42;;;;;;;0.50;0.50;;;10.70;64.00;;;;;;5043103;28;20430;-41
2022/02/16 09:26:09;;;;;;;1.33;0.60;;;10.70;63.50;;;;;;5046666;28;20427;-41
2022/02/16 09:28:36;;;;;;;1.80;1.00;;;10.80;63.80;;;;;;5044012;28;20293;-41
2022/02/16 09:31:03;;;;;;;1.33;1.23;;;10.70;63.90;;;;;;5041859;28;20470;-41
2022/02/16 09:33:29;;;;;;;0.90;0.67;;;10.60;64.40;;;;;;5035964;28;20937;-42
2022/02/16 09:35:55;;;;;;;1.40;0.70;;;10.40;64.90;;;;;;5039763;28;20435;-41
2022/02/16 09:38:21;;;;;;;0.80;0.60;;;10.50;65.50;;;;;;5039575;28;20440;-41
2022/02/16 09:40:50;;;;;;;3.73;1.03;;;10.60;65.30;;;;;;5029233;28;20558;-41
2022/02/16 09:43:19;;;;;;;2.60;2.07;;;10.60;65.30;;;;;;5037173;28;20447;-42
2022/02/16 09:45:45;;;;;;;1.03;0.60;;;10.80;65.30;;;;;;5041916;28;20477;-42
2022/02/16 09:48:11;;;;;;;1.47;0.70;;;11.00;64.90;;;;;;5045325;28;20571;-41
2022/02/16 09:50:37;;;;;;;0.60;0.60;;;10.90;64.80;;;;;;5040502;28;20455;-41
2022/02/16 09:53:03;;;;;;;1.73;0.60;;;10.80;64.60;;;;;;5044697;28;20493;-41
2022/02/16 09:55:29;;;;;;;1.50;0.70;;;10.60;65.20;;;;;;5049019;28;20199;-41
2022/02/16 09:57:54;;;;;;;0.87;0.80;;;10.60;65.30;;;;;;5045366;28;20438;-41
2022/02/16 10:00:20;;;;;;;2.57;0.57;;;10.70;65.40;;;;;;5040874;28;20200;-41
2022/02/16 10:02:46;;;;;;;0.70;0.50;;;10.80;64.70;;;;;;5030730;28;20645;-41
2022/02/16 10:05:15;;;;;;;0.67;0.60;;;10.80;65.10;;;;;;5046177;28;20334;-41
2022/02/16 10:07:43;;;;;;;0.87;0.70;;;11.00;64.70;;;;;;5037242;28;20569;-41
2022/02/16 10:10:14;;;;;;;0.70;0.60;;;11.20;63.90;;;;;;5034518;28;20443;-41
2022/02/16 10:12:44;;;;;;;1.90;0.70;;;11.20;63.60;;;;;;5045022;28;20450;-41
2022/02/16 10:15:11;;;;;;;0.60;0.57;;;11.20;63.30;;;;;;5046819;28;20427;-41
2022/02/16 10:17:37;;;;;;;0.60;0.60;;;11.20;63.00;;;;;;5042450;28;20450;-41
2022/02/16 10:20:05;;;;;;;1.00;0.77;;;11.20;63.30;;;;;;5043451;28;20431;-41
2022/02/16 10:22:49;;;;;;;1.40;1.20;;;11.20;63.10;;;;;;5045876;28;20427;-41
2022/02/16 10:25:28;;;;;;;4.47;0.63;;;11.30;63.40;;;;;;5044222;28;20552;-41
2022/02/16 10:28:05;;;;;;;1.00;0.90;;;11.20;63.20;;;;;;5041270;28;20497;-41
2022/02/16 10:30:31;;;;;;;0.57;0.50;;;11.40;62.90;;;;;;5049723;28;20486;-41
2022/02/16 10:33:22;;;;;;;0.80;0.50;;;11.40;62.70;;;;;;5043319;28;20442;-41
2022/02/16 10:35:50;;;;;;;0.83;0.50;;;11.40;62.50;;;;;;5042738;28;20450;-41
2022/02/16 10:38:16;;;;;;;0.50;0.50;;;11.60;62.20;;;;;;5039874;28;20439;-41
2022/02/16 10:40:42;;;;;;;0.90;0.60;;;11.60;61.80;;;;;;5038952;28;20448;-41
2022/02/16 10:43:08;;;;;;;1.27;0.47;;;11.50;61.60;;;;;;5039443;28;20573;-41
2022/02/16 10:45:45;;;;;;;0.70;0.53;;;11.30;62.20;;;;;;5046965;28;20204;-41
2022/02/16 10:48:10;;;;;;;0.60;0.60;;;11.60;62.60;;;;;;5040825;28;20319;-41
2022/02/16 10:50:45;;;;;;;4.47;1.00;;;11.30;61.90;;;;;;5041136;28;20973;-41
2022/02/16 10:53:11;;;;;;;0.80;0.80;;;11.40;62.90;;;;;;5040056;28;20196;-42
2022/02/16 10:55:40;;;;;;;0.90;0.77;;;11.50;63.30;;;;;;5038619;28;20466;-41
2022/02/16 10:58:07;;;;;;;0.70;0.70;;;11.60;62.30;;;;;;5042413;28;20933;-41
2022/02/16 11:00:35;;;;;;;2.63;0.70;;;11.70;62.60;;;;;;5037876;28;20440;-42
2022/02/16 11:03:03;;;;;;;0.90;0.70;;;12.00;61.60;;;;;;5038648;28;20851;-41
2022/02/16 11:05:29;;;;;;;0.70;0.70;;;12.20;61.10;;;;;;5047419;28;20461;-41
2022/02/16 11:07:57;;;;;;;0.50;0.47;;;12.20;60.90;;;;;;5045250;28;20474;-41
2022/02/16 11:10:25;;;;;;;0.60;0.60;;;12.40;60.60;;;;;;5048959;28;20427;-42
2022/02/16 11:12:51;;;;;;;1.30;0.60;;;12.10;59.80;;;;;;5037146;28;20465;-41
2022/02/16 11:15:17;;;;;;;1.47;0.90;;;12.30;60.90;;;;;;5037250;28;21240;-41
2022/02/16 11:17:42;;;;;;;1.10;1.00;;;12.10;60.60;;;;;;5039797;28;20270;-41
2022/02/16 11:20:19;;;;;;;2.30;0.70;;;12.00;60.90;;;;;;5048234;28;20322;-41
2022/02/16 11:22:58;;;;;;;0.60;0.50;;;12.00;61.10;;;;;;5038430;28;21033;-42
2022/02/16 11:25:41;;;;;;;0.67;0.67;;;12.10;60.70;;;;;;5048757;28;20442;-41
2022/02/16 11:28:11;;;;;;;0.60;0.60;;;11.70;61.20;;;;;;5031802;28;20479;-42
2022/02/16 11:30:55;;;;;;;0.70;0.60;;;12.00;61.80;;;;;;5037751;28;20482;-42
2022/02/16 11:33:22;;;;;;;0.70;0.70;;;11.80;61.60;;;;;;5036898;28;20502;-41
2022/02/16 11:35:57;;;;;;;2.20;0.67;;;11.90;62.40;;;;;;5037339;28;20436;-41
2022/02/16 11:38:38;;;;;;;1.20;0.70;;;11.80;61.50;;;;;;5047177;28;20450;-42
2022/02/16 11:41:26;;;;;;;0.83;0.60;;;11.80;61.80;;;;;;5044251;28;20461;-41
2022/02/16 11:44:02;;;;;;;0.70;0.70;;;12.00;62.10;;;;;;5049087;28;20431;-41
2022/02/16 11:46:43;;;;;;;1.33;0.60;;;12.00;62.10;;;;;;5048819;28;20467;-41
2022/02/16 11:49:36;;;;;;;2.53;0.77;;;12.40;61.70;;;;;;5040349;28;20451;-41
2022/02/16 11:52:34;;;;;;;0.60;0.60;;;12.50;61.50;;;;;;5017039;28;20450;-41
2022/02/16 11:55:00;;;;;;;0.83;0.50;;;12.60;60.90;;;;;;5040417;28;20794;-41
2022/02/16 11:57:46;;;;;;;0.50;0.50;;;12.60;60.80;;;;;;5033185;28;20472;-41
2022/02/16 12:00:20;;;;;;;0.80;0.70;;;12.50;60.90;;;;;;5049223;28;20435;-41
2022/02/16 12:02:55;;;;;;;2.00;0.87;;;12.70;61.30;;;;;;5044909;28;21289;-41
2022/02/16 12:05:53;;;;;;;0.60;0.57;;;12.80;61.30;;;;;;5043236;28;20810;-41
2022/02/16 12:08:48;;;;;;;0.90;0.80;;;12.80;61.60;;;;;;5039609;28;20483;-41
2022/02/16 12:11:20;;;;;;;0.57;0.50;;;12.70;61.20;;;;;;5018517;28;20455;-41
2022/02/16 12:14:06;;;;;;;1.30;0.80;;;12.80;61.60;;;;;;5048832;28;20439;-41
2022/02/16 12:16:37;;;;;;;0.80;0.80;;;12.90;62.50;;;;;;5041309;28;20450;-41
2022/02/16 12:19:08;;;;;;;1.27;0.90;;;12.80;61.90;;;;;;5036116;28;20436;-41
2022/02/16 12:21:38;;;;;;;0.97;0.70;;;12.80;62.30;;;;;;5040519;28;20580;-41
2022/02/16 12:24:09;;;;;;;1.20;0.70;;;12.80;62.50;;;;;;5045945;28;20474;-42
2022/02/16 12:26:38;;;;;;;1.07;0.87;;;13.00;63.60;;;;;;5047789;28;20463;-41
2022/02/16 12:29:17;;;;;;;0.60;0.50;;;13.00;64.50;;;;;;5044775;28;20818;-41
2022/02/16 12:31:47;;;;;;;0.80;0.60;;;12.90;64.90;;;;;;5046732;28;20533;-41
2022/02/16 12:34:15;;;;;;;1.63;0.70;;;13.00;65.70;;;;;;5040800;28;20424;-42
2022/02/16 12:37:03;;;;;;;0.60;0.50;;;13.20;65.90;;;;;;5049289;28;20431;-41
2022/02/16 12:39:30;;;;;;;1.13;0.77;;;13.00;65.70;;;;;;5045436;28;20446;-41
2022/02/16 12:42:13;;;;;;;1.37;0.77;;;12.90;65.40;;;;;;5038881;28;20470;-41
2022/02/16 12:44:43;;;;;;;0.73;0.70;;;12.90;66.10;;;;;;5042989;28;20549;-41
2022/02/16 12:47:10;;;;;;;1.10;0.73;;;12.90;66.70;;;;;;5048756;28;20514;-41
2022/02/16 12:49:40;;;;;;;0.90;0.80;;;12.70;66.70;;;;;;5037144;28;20454;-42